Tukertown, Arkansas
Current Conditions -  °F | °C
As of 1:53 AM on Wednesday 26 Nov 2014 (Local Time) from KHKA Reporting Station
Clear Clear  
Wind Chill: 37°   Ceiling: Unl
Heat Index: 37°   Visibility: 10mi
Dew Point: 29°   Wind: 3mph
Humidity: 73%   Direction: 190°S
Pressure: 30.16"   Gusts: NA
Location:  35.809°N, 89.9565°W
Report Text: KHKA 260753Z AUTO 19003KT 10SM CLR 03/M02 A3016 RMK AO2 SLP214 T00281017
Loading
Personal Weather Stations






























Interactive Weather Map New forecast layout! Learn more

10-Day Weather Forecast

Advertisements
Track Severe Weather on mobile